Time;durP1;ratioP1;P1;durP2;ratioP2;P2;SDS_P1;SDS_P2;PMS_P1;PMS_P2;Temp;Humidity;BMP_temperature;BMP_pressure;BME280_temperature;BME280_humidity;BME280_pressure;Samples;Min_cycle;Max_cycle;Signal;HPM_P1;HPM_P2
2021/08/08 00:00:59;;;;;;;2.30;1.30;;;18.20;36.10;;;;;;5033237;28;20398;-77
2021/08/08 00:03:24;;;;;;;4.18;1.33;;;18.20;36.40;;;;;;5033144;28;20382;-77
2021/08/08 00:05:50;;;;;;;3.72;1.33;;;18.20;36.60;;;;;;5033724;28;20386;-76
2021/08/08 00:08:18;;;;;;;5.00;1.77;;;18.20;36.70;;;;;;5034422;28;20399;-77
2021/08/08 00:10:44;;;;;;;4.60;1.40;;;18.10;36.80;;;;;;5034978;28;20478;-78
2021/08/08 00:13:10;;;;;;;5.35;1.73;;;18.20;36.90;;;;;;5033396;28;20422;-77
2021/08/08 00:15:37;;;;;;;5.80;1.90;;;18.20;37.10;;;;;;5034265;28;20395;-77
2021/08/08 00:18:05;;;;;;;3.90;1.77;;;18.10;37.20;;;;;;5033866;28;20795;-76
2021/08/08 00:20:30;;;;;;;5.53;2.25;;;18.10;37.60;;;;;;5034591;28;20454;-77
2021/08/08 00:22:56;;;;;;;3.50;1.60;;;18.10;37.80;;;;;;5032177;28;20486;-76
2021/08/08 00:25:22;;;;;;;3.47;1.50;;;18.10;38.10;;;;;;5032713;28;20379;-76
2021/08/08 00:27:48;;;;;;;2.47;1.60;;;18.20;38.20;;;;;;5032405;28;20387;-76
2021/08/08 00:30:13;;;;;;;3.95;1.60;;;18.10;38.50;;;;;;5032658;28;20383;-76
2021/08/08 00:32:40;;;;;;;4.30;1.80;;;18.10;38.50;;;;;;5032127;28;20437;-76
2021/08/08 00:35:06;;;;;;;2.90;1.70;;;18.10;38.30;;;;;;5033202;28;21136;-77
2021/08/08 00:37:32;;;;;;;5.55;2.00;;;18.10;38.40;;;;;;5034724;28;20956;-76
2021/08/08 00:39:58;;;;;;;6.25;1.90;;;18.00;38.80;;;;;;5036110;28;20446;-76
2021/08/08 00:42:23;;;;;;;2.67;1.90;;;18.10;38.60;;;;;;5033880;28;20383;-76
2021/08/08 00:44:49;;;;;;;5.67;1.90;;;18.10;38.40;;;;;;5032726;28;20739;-76
2021/08/08 00:47:14;;;;;;;2.65;1.90;;;18.10;38.40;;;;;;5035499;28;20437;-77
2021/08/08 00:49:40;;;;;;;6.57;1.87;;;18.20;37.90;;;;;;5036350;28;20383;-77
2021/08/08 00:52:07;;;;;;;2.97;1.90;;;18.10;38.10;;;;;;5037391;28;20421;-77
2021/08/08 00:54:33;;;;;;;3.78;2.10;;;18.20;38.00;;;;;;5038715;28;20872;-77
2021/08/08 00:56:58;;;;;;;4.30;2.30;;;18.00;38.50;;;;;;5037059;28;20401;-76
2021/08/08 00:59:24;;;;;;;5.10;2.30;;;18.10;38.10;;;;;;5036928;28;20437;-76
2021/08/08 01:01:50;;;;;;;4.53;2.10;;;18.10;38.30;;;;;;5035964;28;20748;-76
2021/08/08 01:04:26;;;;;;;3.70;2.40;;;18.00;38.30;;;;;;5035944;28;20709;-76
2021/08/08 01:06:59;;;;;;;8.23;2.50;;;18.10;37.90;;;;;;5036196;28;20390;-75
2021/08/08 01:09:26;;;;;;;2.40;2.20;;;18.10;37.70;;;;;;5035916;28;20387;-76
2021/08/08 01:11:52;;;;;;;6.57;2.70;;;18.10;37.80;;;;;;5037084;28;20752;-76
2021/08/08 01:14:19;;;;;;;7.80;2.63;;;18.10;37.80;;;;;;5037162;28;20422;-76
2021/08/08 01:16:47;;;;;;;3.63;2.70;;;18.10;37.60;;;;;;5020519;28;20402;-76
2021/08/08 01:19:17;;;;;;;6.10;2.78;;;18.00;37.90;;;;;;5019345;28;20399;-76
2021/08/08 01:21:46;;;;;;;7.37;2.70;;;17.90;38.10;;;;;;5036360;28;20387;-76
2021/08/08 01:24:12;;;;;;;6.43;3.10;;;18.00;38.20;;;;;;5039410;28;20526;-76
2021/08/08 01:26:40;;;;;;;5.85;2.90;;;18.00;37.90;;;;;;5037561;28;20387;-76
2021/08/08 01:29:06;;;;;;;7.70;2.60;;;18.00;37.70;;;;;;5035727;28;20414;-76
2021/08/08 01:31:32;;;;;;;5.03;2.33;;;18.00;37.50;;;;;;5035798;28;20764;-75
2021/08/08 01:33:58;;;;;;;6.07;2.87;;;17.90;38.00;;;;;;5037015;28;20387;-76
2021/08/08 01:36:24;;;;;;;8.73;2.97;;;17.90;38.10;;;;;;5018848;28;20417;-76
2021/08/08 01:39:01;;;;;;;4.90;2.80;;;18.00;37.70;;;;;;5036030;28;20473;-76
2021/08/08 01:41:31;;;;;;;9.10;3.45;;;18.00;37.70;;;;;;5019110;28;20386;-76
2021/08/08 01:43:58;;;;;;;6.45;2.92;;;17.90;37.90;;;;;;5019133;28;20375;-76
2021/08/08 01:46:25;;;;;;;6.40;2.70;;;17.90;37.90;;;;;;5036414;28;20386;-76
2021/08/08 01:48:53;;;;;;;4.25;2.80;;;17.90;37.80;;;;;;5036817;28;20751;-76
2021/08/08 01:51:21;;;;;;;8.48;3.13;;;17.90;38.00;;;;;;5036881;28;20398;-76
2021/08/08 01:53:47;;;;;;;7.00;2.72;;;17.90;37.90;;;;;;5035909;28;20470;-76
2021/08/08 01:56:13;;;;;;;10.70;3.00;;;17.90;37.80;;;;;;5035073;28;20380;-76
2021/08/08 01:58:39;;;;;;;7.40;3.00;;;17.80;38.00;;;;;;5015553;28;20414;-77
2021/08/08 02:01:05;;;;;;;9.17;2.93;;;17.80;38.00;;;;;;5016541;28;20543;-77
2021/08/08 02:03:39;;;;;;;7.97;2.60;;;17.80;38.10;;;;;;5034455;28;20383;-77
2021/08/08 02:06:06;;;;;;;11.05;3.60;;;17.80;38.40;;;;;;5034488;28;20379;-77
2021/08/08 02:08:32;;;;;;;12.80;3.60;;;17.70;38.70;;;;;;5034339;28;20898;-77
2021/08/08 02:10:58;;;;;;;8.20;3.10;;;17.60;38.70;;;;;;5033861;28;20387;-77
2021/08/08 02:13:24;;;;;;;10.07;3.37;;;17.60;38.50;;;;;;5033935;28;20867;-75
2021/08/08 02:15:50;;;;;;;7.13;3.40;;;17.60;38.60;;;;;;5033811;28;20387;-77
2021/08/08 02:18:16;;;;;;;5.05;2.90;;;17.60;38.70;;;;;;5033956;28;20407;-77
2021/08/08 02:20:45;;;;;;;8.90;2.93;;;17.60;38.30;;;;;;5016134;28;20395;-77
2021/08/08 02:23:11;;;;;;;7.15;3.10;;;17.60;38.30;;;;;;5034138;28;20418;-77
2021/08/08 02:25:38;;;;;;;7.60;2.90;;;17.60;38.40;;;;;;5034050;28;20426;-77
2021/08/08 02:28:07;;;;;;;7.40;3.22;;;17.60;38.50;;;;;;5033759;28;20395;-77
2021/08/08 02:30:33;;;;;;;10.23;3.30;;;17.50;38.50;;;;;;5034991;28;20391;-77
2021/08/08 02:32:58;;;;;;;4.20;3.08;;;17.50;38.40;;;;;;5034783;28;20776;-77
2021/08/08 02:35:24;;;;;;;9.57;2.97;;;17.50;38.50;;;;;;5017081;28;20394;-77
2021/08/08 02:37:49;;;;;;;7.07;3.00;;;17.50;38.30;;;;;;5035036;28;20407;-77
2021/08/08 02:40:15;;;;;;;9.63;3.40;;;17.50;38.00;;;;;;5034413;28;20379;-75
2021/08/08 02:42:40;;;;;;;7.43;3.10;;;17.60;37.90;;;;;;5034417;28;20397;-76
2021/08/08 02:45:06;;;;;;;10.25;3.50;;;17.50;37.90;;;;;;5034598;28;20391;-77
2021/08/08 02:47:32;;;;;;;12.55;3.50;;;17.50;37.80;;;;;;5034015;28;20387;-77
2021/08/08 02:49:58;;;;;;;7.93;3.72;;;17.50;37.10;;;;;;5034247;28;20371;-75
2021/08/08 02:52:25;;;;;;;9.10;3.30;;;17.50;37.30;;;;;;5034876;28;20429;-74
2021/08/08 02:54:51;;;;;;;11.57;3.38;;;17.60;37.30;;;;;;5016882;28;20395;-75
2021/08/08 02:57:16;;;;;;;9.55;3.28;;;17.50;37.10;;;;;;5017897;28;20466;-77
2021/08/08 02:59:42;;;;;;;12.15;3.58;;;17.50;36.90;;;;;;5016670;28;20437;-77
2021/08/08 03:02:07;;;;;;;9.90;3.87;;;17.50;36.30;;;;;;5033724;28;20379;-75
2021/08/08 03:04:34;;;;;;;12.90;3.83;;;17.50;36.30;;;;;;5034569;28;20922;-77
2021/08/08 03:07:00;;;;;;;10.63;3.72;;;17.40;36.50;;;;;;5035607;28;20379;-75
2021/08/08 03:09:25;;;;;;;17.67;3.42;;;17.40;36.80;;;;;;5033358;28;20395;-75
2021/08/08 03:11:51;;;;;;;15.47;3.80;;;17.30;36.90;;;;;;5034463;28;20418;-77
2021/08/08 03:14:18;;;;;;;7.10;3.20;;;17.30;37.10;;;;;;5033893;28;20398;-76
2021/08/08 03:16:45;;;;;;;14.32;3.30;;;17.20;36.80;;;;;;5016094;28;20391;-77
2021/08/08 03:19:11;;;;;;;11.02;3.70;;;17.00;37.50;;;;;;5034341;28;20434;-76
2021/08/08 03:21:37;;;;;;;8.63;3.20;;;16.90;38.10;;;;;;5033821;28;20383;-76
2021/08/08 03:24:04;;;;;;;15.93;4.10;;;16.80;38.40;;;;;;5034895;28;20473;-75
2021/08/08 03:26:29;;;;;;;8.52;3.40;;;16.90;38.30;;;;;;5036493;28;20391;-76
2021/08/08 03:28:55;;;;;;;14.32;4.28;;;16.80;38.40;;;;;;5033338;28;20389;-76
2021/08/08 03:31:21;;;;;;;17.25;3.72;;;16.80;38.70;;;;;;5033639;28;20421;-76
2021/08/08 03:33:46;;;;;;;17.17;3.87;;;16.70;38.90;;;;;;5033201;28;20860;-76
2021/08/08 03:36:12;;;;;;;13.00;4.17;;;16.70;38.80;;;;;;5033629;28;20391;-76
2021/08/08 03:38:39;;;;;;;13.73;4.05;;;16.60;39.10;;;;;;5033209;28;20410;-76
2021/08/08 03:41:05;;;;;;;10.80;3.83;;;16.50;39.50;;;;;;5033512;28;20395;-76
2021/08/08 03:43:31;;;;;;;15.65;4.25;;;16.50;39.90;;;;;;5033934;28;20387;-76
2021/08/08 03:45:56;;;;;;;17.00;4.30;;;16.30;40.50;;;;;;5033393;28;20386;-76
2021/08/08 03:48:22;;;;;;;19.27;4.30;;;16.30;40.40;;;;;;5032783;28;20394;-76
2021/08/08 03:50:48;;;;;;;10.27;3.77;;;16.30;40.90;;;;;;5015539;28;20474;-76
2021/08/08 03:53:13;;;;;;;11.38;3.90;;;16.30;41.60;;;;;;5033101;28;20884;-75
2021/08/08 03:55:39;;;;;;;7.90;3.72;;;16.30;41.00;;;;;;5033180;28;20902;-76
2021/08/08 03:58:04;;;;;;;13.67;4.30;;;16.20;41.80;;;;;;5015366;28;20832;-76
2021/08/08 04:00:30;;;;;;;13.33;3.50;;;16.20;41.50;;;;;;5033748;28;20383;-76
2021/08/08 04:02:56;;;;;;;12.13;3.93;;;16.10;41.90;;;;;;5033149;28;20387;-76
2021/08/08 04:05:21;;;;;;;12.93;3.63;;;16.10;41.70;;;;;;5032797;28;20423;-75
2021/08/08 04:07:47;;;;;;;10.90;3.75;;;16.20;41.50;;;;;;5032504;28;20772;-76
2021/08/08 04:10:13;;;;;;;11.50;4.05;;;16.10;41.30;;;;;;5033088;28;20389;-76
2021/08/08 04:12:39;;;;;;;11.40;3.75;;;16.10;41.60;;;;;;5033302;28;20787;-76
2021/08/08 04:15:05;;;;;;;7.03;3.60;;;16.20;41.30;;;;;;5033355;28;20387;-75
2021/08/08 04:17:31;;;;;;;12.27;3.87;;;16.20;41.20;;;;;;5032395;28;20437;-75
2021/08/08 04:19:57;;;;;;;7.05;3.80;;;16.30;41.00;;;;;;5032518;28;20379;-76
2021/08/08 04:22:22;;;;;;;15.50;4.20;;;16.30;40.50;;;;;;5032456;28;20379;-75
2021/08/08 04:24:48;;;;;;;11.17;3.90;;;16.40;40.40;;;;;;5033000;28;20461;-75
2021/08/08 04:27:14;;;;;;;13.23;3.80;;;16.30;40.40;;;;;;5033419;28;20382;-77
2021/08/08 04:29:40;;;;;;;9.23;4.07;;;16.40;39.80;;;;;;5034284;28;20384;-75
2021/08/08 04:32:06;;;;;;;9.70;3.70;;;16.50;39.90;;;;;;5032802;28;20409;-75
2021/08/08 04:34:32;;;;;;;12.40;3.65;;;16.50;39.60;;;;;;5032547;28;20387;-76
2021/08/08 04:36:59;;;;;;;13.23;3.90;;;16.60;39.30;;;;;;5032462;28;20383;-75
2021/08/08 04:39:25;;;;;;;10.25;4.15;;;16.50;40.00;;;;;;5032686;28;20403;-75
2021/08/08 04:41:52;;;;;;;12.47;4.03;;;16.40;39.90;;;;;;5032796;28;20379;-76
2021/08/08 04:44:18;;;;;;;16.13;4.20;;;16.30;40.80;;;;;;5033203;28;20415;-76
2021/08/08 04:46:44;;;;;;;14.80;3.80;;;16.20;40.90;;;;;;5032827;28;20387;-76
2021/08/08 04:49:09;;;;;;;13.05;4.20;;;16.20;40.90;;;;;;5033265;28;20398;-77
2021/08/08 04:51:35;;;;;;;10.43;4.45;;;16.20;40.80;;;;;;5035447;28;20468;-77
2021/08/08 04:54:00;;;;;;;10.93;4.40;;;16.30;40.50;;;;;;5034305;28;20379;-77
2021/08/08 04:56:26;;;;;;;11.70;4.17;;;16.30;40.40;;;;;;5016977;28;20544;-77
2021/08/08 04:58:52;;;;;;;14.80;4.00;;;16.30;40.60;;;;;;5014756;28;20411;-76
2021/08/08 05:01:17;;;;;;;10.20;4.07;;;16.40;40.50;;;;;;5031874;28;20391;-75
2021/08/08 05:03:43;;;;;;;9.82;3.85;;;16.40;40.20;;;;;;5032379;28;20379;-75
2021/08/08 05:06:09;;;;;;;10.68;4.20;;;16.60;39.80;;;;;;5032434;28;20829;-74
2021/08/08 05:08:34;;;;;;;13.60;4.18;;;16.70;39.00;;;;;;5014941;28;20410;-76
2021/08/08 05:11:00;;;;;;;12.63;4.07;;;16.80;39.20;;;;;;5014659;28;20400;-75
2021/08/08 05:13:28;;;;;;;13.43;4.00;;;16.70;39.10;;;;;;5032506;28;20501;-75
2021/08/08 05:15:54;;;;;;;17.00;5.30;;;16.80;38.90;;;;;;5032159;28;20390;-75
2021/08/08 05:18:19;;;;;;;7.78;4.10;;;16.90;38.40;;;;;;5014417;28;20450;-75
2021/08/08 05:20:45;;;;;;;17.33;3.93;;;17.10;37.90;;;;;;5032390;28;20390;-76
2021/08/08 05:23:11;;;;;;;10.17;4.00;;;17.30;36.90;;;;;;5015871;28;20391;-76
2021/08/08 05:25:36;;;;;;;10.83;3.77;;;17.30;36.80;;;;;;5033435;28;20386;-76
2021/08/08 05:28:02;;;;;;;12.57;4.13;;;17.30;36.90;;;;;;5016153;28;20910;-77
2021/08/08 05:30:28;;;;;;;16.98;4.15;;;17.20;36.80;;;;;;5033156;28;20442;-75
2021/08/08 05:32:53;;;;;;;16.35;5.07;;;17.20;36.90;;;;;;5035489;28;20430;-75
2021/08/08 05:35:19;;;;;;;15.83;4.83;;;17.20;36.60;;;;;;5036785;28;20395;-77
2021/08/08 05:37:45;;;;;;;16.43;4.67;;;17.30;36.60;;;;;;5036046;28;20747;-77
2021/08/08 05:40:11;;;;;;;16.73;4.70;;;17.40;36.30;;;;;;5036474;28;20394;-77
2021/08/08 05:42:37;;;;;;;11.25;4.80;;;17.40;36.30;;;;;;5036484;28;20876;-77
2021/08/08 05:45:04;;;;;;;11.68;4.15;;;17.40;36.20;;;;;;5036375;28;20395;-77
2021/08/08 05:47:30;;;;;;;14.75;4.85;;;17.50;36.00;;;;;;5036585;28;20872;-77
2021/08/08 05:49:56;;;;;;;17.90;4.95;;;17.50;35.70;;;;;;5019318;28;20541;-76
2021/08/08 05:52:22;;;;;;;17.20;4.10;;;17.60;35.30;;;;;;5036221;28;20405;-76
2021/08/08 05:54:47;;;;;;;11.50;4.20;;;17.60;35.20;;;;;;5035821;28;20902;-76
2021/08/08 05:57:13;;;;;;;10.17;4.03;;;17.60;34.80;;;;;;5035279;28;20418;-75
2021/08/08 05:59:38;;;;;;;10.15;4.30;;;17.70;34.70;;;;;;5034729;28;20809;-75
2021/08/08 06:02:05;;;;;;;15.03;4.20;;;17.80;34.40;;;;;;5034988;28;20394;-76
2021/08/08 06:04:30;;;;;;;10.90;4.35;;;17.90;34.30;;;;;;5034947;28;20418;-76
2021/08/08 06:06:56;;;;;;;20.47;4.80;;;17.90;33.70;;;;;;5035694;28;20379;-76
2021/08/08 06:09:22;;;;;;;17.80;4.28;;;18.00;33.60;;;;;;5034816;28;20445;-76
2021/08/08 06:11:48;;;;;;;18.10;4.90;;;18.10;33.20;;;;;;5035304;28;20383;-76
2021/08/08 06:14:13;;;;;;;12.38;3.88;;;18.10;33.20;;;;;;5035140;28;20387;-77
2021/08/08 06:16:39;;;;;;;16.47;3.73;;;18.20;32.50;;;;;;5035394;28;20391;-75
2021/08/08 06:19:04;;;;;;;15.65;4.80;;;18.20;32.70;;;;;;5034988;28;20399;-76
2021/08/08 06:21:30;;;;;;;10.65;3.60;;;18.10;33.30;;;;;;5038383;28;20410;-77
2021/08/08 06:23:55;;;;;;;10.00;3.73;;;18.00;33.20;;;;;;5036896;28;20437;-75
2021/08/08 06:26:21;;;;;;;16.77;4.13;;;18.00;32.90;;;;;;5035355;28;20391;-77
2021/08/08 06:28:47;;;;;;;8.50;3.72;;;17.90;33.00;;;;;;5017924;28;20919;-78
2021/08/08 06:31:12;;;;;;;8.55;4.35;;;17.90;33.20;;;;;;5036183;28;20395;-76
2021/08/08 06:33:38;;;;;;;13.67;3.90;;;17.90;33.80;;;;;;5035558;28;20463;-74
2021/08/08 06:36:04;;;;;;;15.77;4.43;;;17.90;33.50;;;;;;5035115;28;20395;-76
2021/08/08 06:38:29;;;;;;;15.32;3.90;;;18.10;32.70;;;;;;5034869;28;20706;-76
2021/08/08 06:40:55;;;;;;;11.20;3.80;;;18.00;32.40;;;;;;5017869;28;20522;-76
2021/08/08 06:43:20;;;;;;;12.98;4.40;;;18.10;32.40;;;;;;5034443;28;20469;-76
2021/08/08 06:45:46;;;;;;;11.33;3.87;;;18.20;32.10;;;;;;5035383;28;20411;-75
2021/08/08 06:48:12;;;;;;;13.37;4.00;;;18.30;32.10;;;;;;5035059;28;20872;-76
2021/08/08 06:50:37;;;;;;;13.13;3.70;;;18.30;31.60;;;;;;5034886;28;20397;-77
2021/08/08 06:53:03;;;;;;;11.90;4.10;;;18.40;31.00;;;;;;5034843;28;20383;-76
2021/08/08 06:55:28;;;;;;;9.87;4.00;;;18.50;31.10;;;;;;5035700;28;20387;-76
2021/08/08 06:57:54;;;;;;;9.93;3.67;;;18.50;30.70;;;;;;5034409;28;20835;-74
2021/08/08 07:00:20;;;;;;;15.98;4.30;;;18.60;30.50;;;;;;5034636;28;20474;-76
2021/08/08 07:02:45;;;;;;;17.07;4.40;;;18.70;30.50;;;;;;5033922;28;20776;-76
2021/08/08 07:05:12;;;;;;;7.87;3.87;;;18.80;30.20;;;;;;5034810;28;20407;-75
2021/08/08 07:07:37;;;;;;;12.25;4.47;;;18.80;30.30;;;;;;5038351;28;20399;-75
2021/08/08 07:10:04;;;;;;;11.47;3.83;;;18.80;30.40;;;;;;5037528;28;20391;-75
2021/08/08 07:12:29;;;;;;;13.70;3.70;;;18.90;29.90;;;;;;5037349;28;20379;-76
2021/08/08 07:14:55;;;;;;;10.68;4.10;;;19.00;29.90;;;;;;5016907;28;20394;-75
2021/08/08 07:17:20;;;;;;;8.17;3.53;;;19.00;29.60;;;;;;5033759;28;20895;-76
2021/08/08 07:19:46;;;;;;;12.30;3.77;;;19.20;29.00;;;;;;5034596;28;20402;-77
2021/08/08 07:22:12;;;;;;;12.57;3.85;;;19.20;29.10;;;;;;5017521;28;20391;-76
2021/08/08 07:24:37;;;;;;;9.52;3.95;;;19.20;28.90;;;;;;5038695;28;20399;-75
2021/08/08 07:27:03;;;;;;;12.90;3.70;;;19.20;28.20;;;;;;5035372;28;20387;-76
2021/08/08 07:29:29;;;;;;;15.20;3.50;;;19.30;28.20;;;;;;5035363;28;20395;-74
2021/08/08 07:31:55;;;;;;;14.80;4.20;;;19.30;28.40;;;;;;5038821;28;20465;-77
2021/08/08 07:34:21;;;;;;;11.80;4.10;;;19.30;28.40;;;;;;5018939;28;20433;-77
2021/08/08 07:36:47;;;;;;;14.77;4.28;;;19.30;28.10;;;;;;5036035;28;20395;-76
2021/08/08 07:39:12;;;;;;;12.68;4.00;;;19.40;27.90;;;;;;5035181;28;20485;-77
2021/08/08 07:41:38;;;;;;;16.65;4.20;;;19.40;27.40;;;;;;5033986;28;20390;-73
2021/08/08 07:44:04;;;;;;;14.30;4.40;;;19.40;27.80;;;;;;5032197;28;20864;-76
2021/08/08 07:46:30;;;;;;;14.23;4.13;;;19.60;27.60;;;;;;5014077;28;20419;-75
2021/08/08 07:48:56;;;;;;;13.20;4.00;;;19.80;26.90;;;;;;5032033;28;20383;-76
2021/08/08 07:51:21;;;;;;;14.13;3.80;;;20.10;25.40;;;;;;5031584;28;20398;-75
2021/08/08 07:53:47;;;;;;;14.50;4.22;;;20.10;24.80;;;;;;5031672;28;20398;-75
2021/08/08 07:56:13;;;;;;;13.13;3.80;;;20.00;25.10;;;;;;5030739;28;20937;-76
2021/08/08 07:58:39;;;;;;;12.88;4.40;;;20.00;25.00;;;;;;5031357;28;20888;-74
2021/08/08 08:01:04;;;;;;;9.20;3.30;;;20.00;24.60;;;;;;5031246;28;20387;-76
2021/08/08 08:03:30;;;;;;;14.30;4.03;;;19.90;24.80;;;;;;5014163;28;20455;-75
2021/08/08 08:05:56;;;;;;;11.47;4.00;;;19.70;25.40;;;;;;5031616;28;20375;-76
2021/08/08 08:08:22;;;;;;;10.48;3.80;;;19.70;25.30;;;;;;5031233;28;20903;-74
2021/08/08 08:10:48;;;;;;;14.00;3.97;;;19.60;25.00;;;;;;5013635;28;20444;-75
2021/08/08 08:13:13;;;;;;;11.30;3.77;;;19.60;24.50;;;;;;5031443;28;20867;-74
2021/08/08 08:15:39;;;;;;;14.13;3.60;;;19.80;24.60;;;;;;5031103;28;20969;-76
2021/08/08 08:18:05;;;;;;;14.38;3.80;;;20.10;23.10;;;;;;5030950;28;20437;-75
2021/08/08 08:20:30;;;;;;;16.55;4.10;;;20.20;22.60;;;;;;5031086;28;20426;-74
2021/08/08 08:22:56;;;;;;;10.93;3.83;;;20.20;22.80;;;;;;5031039;28;20869;-76
2021/08/08 08:25:22;;;;;;;11.73;4.33;;;20.10;23.40;;;;;;5031213;28;20864;-74
2021/08/08 08:27:50;;;;;;;13.77;3.78;;;19.90;23.10;;;;;;5031312;28;20477;-76
2021/08/08 08:30:16;;;;;;;13.43;4.10;;;19.90;24.00;;;;;;5031088;28;20394;-74
2021/08/08 08:32:42;;;;;;;14.95;4.00;;;19.90;23.20;;;;;;5014977;28;20395;-77
2021/08/08 08:35:09;;;;;;;13.90;4.30;;;19.90;23.30;;;;;;5033424;28;20403;-76
2021/08/08 08:37:34;;;;;;;16.27;4.10;;;19.90;23.70;;;;;;5033508;28;20375;-77
2021/08/08 08:40:02;;;;;;;18.23;4.20;;;20.10;23.20;;;;;;5034258;28;20414;-77
2021/08/08 08:42:29;;;;;;;14.40;4.22;;;20.40;22.10;;;;;;5033906;28;20382;-77
2021/08/08 08:44:56;;;;;;;16.85;4.57;;;20.80;21.20;;;;;;5037196;28;20403;-77
2021/08/08 08:47:24;;;;;;;14.27;4.23;;;21.10;20.30;;;;;;5019365;28;20391;-78
2021/08/08 08:49:58;;;;;;;11.50;4.00;;;21.40;19.70;;;;;;5018583;28;20418;-78
2021/08/08 08:52:26;;;;;;;16.92;5.00;;;21.40;19.10;;;;;;5016832;28;20391;-77
2021/08/08 08:54:53;;;;;;;11.20;4.28;;;21.30;19.00;;;;;;5016455;28;20394;-77
2021/08/08 08:57:19;;;;;;;17.25;3.80;;;21.10;19.30;;;;;;5016919;28;20411;-76
2021/08/08 08:59:46;;;;;;;10.73;3.60;;;20.90;19.50;;;;;;5034773;28;20411;-76
2021/08/08 09:02:13;;;;;;;13.50;3.90;;;20.90;19.40;;;;;;5035294;28;20413;-77
2021/08/08 09:04:38;;;;;;;15.27;4.70;;;21.10;19.40;;;;;;5035562;28;20387;-77
2021/08/08 09:07:04;;;;;;;13.63;4.30;;;21.30;19.50;;;;;;5036481;28;20390;-78
2021/08/08 09:09:35;;;;;;;12.73;4.10;;;21.40;18.70;;;;;;5038756;28;20383;-77
2021/08/08 09:12:01;;;;;;;19.52;4.22;;;21.60;18.90;;;;;;5039813;28;20387;-76
2021/08/08 09:14:27;;;;;;;12.90;4.32;;;21.70;18.10;;;;;;5038287;28;20445;-76
2021/08/08 09:16:56;;;;;;;11.48;3.88;;;21.60;18.30;;;;;;5037071;28;20866;-78
2021/08/08 09:19:21;;;;;;;13.05;4.47;;;21.50;18.70;;;;;;5036411;28;20430;-77
2021/08/08 09:21:47;;;;;;;12.47;4.33;;;21.40;18.70;;;;;;5036938;28;20407;-77
2021/08/08 09:24:34;;;;;;;12.10;4.00;;;21.40;18.20;;;;;;5037269;28;20409;-77
2021/08/08 09:27:08;;;;;;;10.55;3.70;;;21.30;18.00;;;;;;5018594;28;20795;-76
2021/08/08 09:29:35;;;;;;;13.48;4.53;;;21.10;18.40;;;;;;5037371;28;20422;-77
2021/08/08 09:32:02;;;;;;;17.23;4.95;;;21.20;18.40;;;;;;5036575;28;20409;-77
2021/08/08 09:34:36;;;;;;;13.75;3.65;;;21.20;18.30;;;;;;5019514;28;20418;-77
2021/08/08 09:37:04;;;;;;;17.08;4.05;;;21.00;18.90;;;;;;5036891;28;20383;-76
2021/08/08 09:39:36;;;;;;;9.90;4.20;;;21.10;18.70;;;;;;5036156;28;20825;-77
2021/08/08 09:42:18;;;;;;;10.70;4.47;;;21.10;19.00;;;;;;5037053;28;20824;-77
2021/08/08 09:45:02;;;;;;;11.17;4.03;;;21.40;18.80;;;;;;5017774;28;20394;-76
2021/08/08 09:47:43;;;;;;;11.23;4.05;;;21.80;17.70;;;;;;5036570;28;20383;-76
2021/08/08 09:50:17;;;;;;;10.07;3.20;;;22.00;17.00;;;;;;5038225;28;20448;-77
2021/08/08 09:52:54;;;;;;;12.77;4.13;;;22.10;16.90;;;;;;5037696;28;20720;-77
2021/08/08 09:55:32;;;;;;;12.48;4.28;;;22.00;17.10;;;;;;5038974;28;20391;-78
2021/08/08 09:57:58;;;;;;;8.50;3.70;;;22.00;17.10;;;;;;5038989;28;20395;-78
2021/08/08 10:00:30;;;;;;;10.85;3.30;;;22.00;16.00;;;;;;5039597;28;20379;-77
2021/08/08 10:02:57;;;;;;;7.13;3.03;;;22.20;16.10;;;;;;5040186;28;20375;-76
2021/08/08 10:05:24;;;;;;;11.32;3.13;;;22.40;15.60;;;;;;5039610;28;20390;-76
2021/08/08 10:07:50;;;;;;;10.48;3.10;;;22.60;14.90;;;;;;5038659;28;20393;-77
2021/08/08 10:10:17;;;;;;;12.15;3.47;;;22.70;15.40;;;;;;5039178;28;20462;-77
2021/08/08 10:12:43;;;;;;;8.05;2.83;;;22.50;15.40;;;;;;5038914;28;20433;-77
2021/08/08 10:15:09;;;;;;;11.50;3.30;;;22.20;15.70;;;;;;5037234;28;20391;-77
2021/08/08 10:17:37;;;;;;;9.18;3.30;;;21.90;16.00;;;;;;5036018;28;20452;-76
2021/08/08 10:20:04;;;;;;;11.03;3.53;;;21.80;16.10;;;;;;5035729;28;20414;-76
2021/08/08 10:22:33;;;;;;;11.70;3.40;;;21.90;16.00;;;;;;5037788;28;20395;-77
2021/08/08 10:24:59;;;;;;;13.65;3.45;;;21.90;16.40;;;;;;5043898;28;20387;-76
2021/08/08 10:27:26;;;;;;;12.90;3.70;;;21.90;15.70;;;;;;5040471;28;20463;-78
2021/08/08 10:29:55;;;;;;;9.25;2.75;;;22.10;16.40;;;;;;5021615;28;20391;-78
2021/08/08 10:32:24;;;;;;;13.30;3.50;;;22.30;16.00;;;;;;5040864;28;20938;-77
2021/08/08 10:34:50;;;;;;;8.73;3.10;;;22.70;15.50;;;;;;5025162;28;20749;-77
2021/08/08 10:37:20;;;;;;;8.60;3.10;;;23.10;14.20;;;;;;5038586;28;20398;-77
2021/08/08 10:39:46;;;;;;;10.55;2.90;;;23.30;14.20;;;;;;5021393;28;20510;-77
2021/08/08 10:42:14;;;;;;;7.22;3.38;;;23.50;13.60;;;;;;5039041;28;20486;-76
2021/08/08 10:44:48;;;;;;;8.77;3.28;;;23.70;13.20;;;;;;5036475;28;20391;-77
2021/08/08 10:47:30;;;;;;;6.60;2.90;;;23.70;12.90;;;;;;5035213;28;20387;-77
2021/08/08 10:50:10;;;;;;;12.73;2.88;;;23.70;13.10;;;;;;5035916;28;20383;-77
2021/08/08 10:52:40;;;;;;;6.63;2.45;;;23.80;12.60;;;;;;5019764;28;21029;-77
2021/08/08 10:55:07;;;;;;;6.97;2.30;;;23.90;12.30;;;;;;5042022;28;20437;-77
2021/08/08 10:57:42;;;;;;;11.05;3.03;;;23.80;12.90;;;;;;5039803;28;20379;-77
2021/08/08 11:00:15;;;;;;;11.48;3.08;;;23.40;13.40;;;;;;5039335;28;20530;-77
2021/08/08 11:02:44;;;;;;;9.52;2.88;;;23.20;13.60;;;;;;5020358;28;20394;-76
2021/08/08 11:05:15;;;;;;;7.90;3.17;;;23.30;13.60;;;;;;5022029;28;20398;-76
2021/08/08 11:07:42;;;;;;;7.97;2.80;;;23.70;13.30;;;;;;5037064;28;20391;-76
2021/08/08 11:10:11;;;;;;;7.88;3.20;;;23.80;12.70;;;;;;5037368;28;20876;-78
2021/08/08 11:12:40;;;;;;;7.35;2.80;;;24.20;12.90;;;;;;5036360;28;20847;-77
2021/08/08 11:15:10;;;;;;;9.40;2.70;;;24.10;12.00;;;;;;5019287;28;20427;-76
2021/08/08 11:17:37;;;;;;;9.18;3.00;;;23.80;12.40;;;;;;5036117;28;20444;-76
2021/08/08 11:20:05;;;;;;;10.70;2.65;;;23.70;12.70;;;;;;5036428;28;20403;-77
2021/08/08 11:22:30;;;;;;;7.78;3.55;;;23.50;12.30;;;;;;5036844;28;20398;-78
2021/08/08 11:25:03;;;;;;;10.77;4.30;;;23.50;12.70;;;;;;5035534;28;20379;-76
2021/08/08 11:27:41;;;;;;;7.05;2.78;;;23.60;12.30;;;;;;5019285;28;20447;-78
2021/08/08 11:30:18;;;;;;;6.82;1.85;;;23.50;12.30;;;;;;5037335;28;20394;-78
2021/08/08 11:32:45;;;;;;;7.65;2.47;;;23.40;13.00;;;;;;5018818;28;20439;-77
2021/08/08 11:35:17;;;;;;;5.10;2.03;;;23.90;12.30;;;;;;5036165;28;20395;-76
2021/08/08 11:37:45;;;;;;;3.42;2.20;;;24.30;11.80;;;;;;5016918;28;20481;-77
2021/08/08 11:40:28;;;;;;;6.40;3.17;;;24.50;11.00;;;;;;5036960;28;20498;-78
2021/08/08 11:42:58;;;;;;;9.07;2.30;;;24.40;11.20;;;;;;5018206;28;20429;-75
2021/08/08 11:45:46;;;;;;;5.60;2.60;;;24.10;11.60;;;;;;5035917;28;20899;-77
2021/08/08 11:48:17;;;;;;;10.25;2.53;;;23.50;12.40;;;;;;5016454;28;20403;-77
2021/08/08 11:50:43;;;;;;;8.75;2.50;;;23.30;12.60;;;;;;5017018;28;20494;-77
2021/08/08 11:53:10;;;;;;;5.65;2.20;;;23.30;12.40;;;;;;5034092;28;20395;-77
2021/08/08 11:55:37;;;;;;;6.35;2.25;;;23.50;12.70;;;;;;5034975;28;20395;-77
2021/08/08 11:58:09;;;;;;;5.65;2.55;;;23.70;12.10;;;;;;5033972;28;20767;-76
2021/08/08 12:00:39;;;;;;;9.43;2.22;;;23.90;12.30;;;;;;5034044;28;20414;-75
2021/08/08 12:03:06;;;;;;;6.70;2.70;;;24.30;12.40;;;;;;5033950;28;20466;-77
2021/08/08 12:05:35;;;;;;;5.95;2.33;;;24.70;11.90;;;;;;5033074;28;20383;-77
2021/08/08 12:08:03;;;;;;;5.85;2.50;;;24.90;11.30;;;;;;5034990;28;20391;-77
2021/08/08 12:10:37;;;;;;;9.38;2.60;;;24.90;11.50;;;;;;5032592;28;20387;-77
2021/08/08 12:13:15;;;;;;;6.47;2.20;;;24.70;11.80;;;;;;5032479;28;20904;-77
2021/08/08 12:15:41;;;;;;;4.72;2.00;;;24.30;11.70;;;;;;5020511;28;20390;-76
2021/08/08 12:18:06;;;;;;;7.53;2.50;;;23.70;12.30;;;;;;5039508;28;20479;-77
2021/08/08 12:20:40;;;;;;;7.30;2.20;;;23.30;13.50;;;;;;5015788;28;20457;-75
2021/08/08 12:23:13;;;;;;;5.93;2.30;;;23.20;14.30;;;;;;5033778;28;20387;-78
2021/08/08 12:25:43;;;;;;;4.63;2.40;;;23.10;14.10;;;;;;5033087;28;20411;-76
2021/08/08 12:28:09;;;;;;;5.10;2.55;;;22.90;14.10;;;;;;5032342;28;20448;-78
2021/08/08 12:30:35;;;;;;;7.82;3.10;;;22.90;14.50;;;;;;5032492;28;20382;-77
2021/08/08 12:33:09;;;;;;;6.40;2.50;;;23.10;14.60;;;;;;5032217;28;20461;-77
2021/08/08 12:35:40;;;;;;;9.32;2.55;;;23.10;14.90;;;;;;5033786;28;20444;-75
2021/08/08 12:38:08;;;;;;;4.55;2.50;;;23.20;14.50;;;;;;5032160;28;20729;-75
2021/08/08 12:40:48;;;;;;;8.77;2.90;;;23.30;13.10;;;;;;5015265;28;20416;-76